Terminal Aerodrome Forecast
Issued by NWS

Home | Current Version | Previous Version | Text Only | Print | Product List | Glossary On
Versions: 1 2 3 4 5 6 7 8 9 10 11 12 13 14 15 16 17 18 19 20 21
000
FTUS42 KGSP 252058 AAA
TAFGMU
TAF AMD
KGMU 252058Z 2521/2618 22005KT 6SM BR BKN006 OVC010
     FM252300 23010KT P6SM BKN035 WS020/24030KT
     FM260700 24011KT P6SM BKN019
     FM261400 27010KT P6SM SCT020=

USA.gov is the U.S. government's official web portal to all federal, state and local government web resources and services.